Time;durP1;ratioP1;P1;durP2;ratioP2;P2;SDS_P1;SDS_P2;PMS_P1;PMS_P2;Temp;Humidity;BMP_temperature;BMP_pressure;BME280_temperature;BME280_humidity;BME280_pressure;Samples;Min_cycle;Max_cycle;Signal;HPM_P1;HPM_P2
2022/08/09 00:01:26;;;;;;;10.40;5.87;;;17.40;69.50;;;;;;5023549;28;20488;-51
2022/08/09 00:03:52;;;;;;;24.30;7.23;;;17.30;70.60;;;;;;5023817;28;20487;-52
2022/08/09 00:06:20;;;;;;;22.13;5.27;;;17.30;70.80;;;;;;5028621;28;20484;-52
2022/08/09 00:08:49;;;;;;;16.63;6.70;;;17.30;70.40;;;;;;5027084;28;20476;-53
2022/08/09 00:11:16;;;;;;;15.43;6.00;;;;;;;;;;5026741;28;20475;-53
2022/08/09 00:13:43;;;;;;;28.17;7.20;;;17.30;71.00;;;;;;5030050;28;20476;-53
2022/08/09 00:16:11;;;;;;;16.30;7.30;;;17.20;71.40;;;;;;5028408;28;20487;-53
2022/08/09 00:18:38;;;;;;;15.47;8.50;;;17.10;71.50;;;;;;5028148;28;20506;-53
2022/08/09 00:21:06;;;;;;;18.13;6.20;;;17.10;71.30;;;;;;5030456;28;20487;-52
2022/08/09 00:23:33;;;;;;;13.03;5.80;;;17.10;71.30;;;;;;4997516;28;20467;-52
2022/08/09 00:26:00;;;;;;;10.53;6.80;;;17.00;71.80;;;;;;5017130;28;20971;-52
2022/08/09 00:28:27;;;;;;;21.97;5.47;;;17.00;71.70;;;;;;4999271;28;20479;-52
2022/08/09 00:30:55;;;;;;;10.50;6.03;;;17.00;72.00;;;;;;5018214;28;20516;-52
2022/08/09 00:33:25;;;;;;;10.87;5.80;;;16.90;72.10;;;;;;5014281;28;20480;-52
2022/08/09 00:35:52;;;;;;;6.07;3.97;;;16.80;72.20;;;;;;5012076;28;20895;-52
2022/08/09 00:38:19;;;;;;;9.00;5.07;;;16.80;72.00;;;;;;5012603;28;20897;-52
2022/08/09 00:40:47;;;;;;;11.10;6.83;;;;;;;;;;5005683;28;20820;-51
2022/08/09 00:43:13;;;;;;;16.70;5.57;;;16.70;71.90;;;;;;5004452;28;20575;-52
2022/08/09 00:45:40;;;;;;;24.63;9.50;;;16.70;72.00;;;;;;5008211;28;20546;-51
2022/08/09 00:48:07;;;;;;;12.17;6.97;;;16.60;72.90;;;;;;5008928;28;20499;-51
2022/08/09 00:50:35;;;;;;;9.70;7.13;;;16.50;73.30;;;;;;5009156;28;20468;-52
2022/08/09 00:53:02;;;;;;;9.17;6.40;;;16.40;73.00;;;;;;5021784;28;20494;-52
2022/08/09 00:55:29;;;;;;;12.33;6.33;;;;;;;;;;5007436;28;20553;-52
2022/08/09 00:57:56;;;;;;;16.60;6.23;;;16.30;73.40;;;;;;5008892;28;20488;-52
2022/08/09 01:00:22;;;;;;;11.23;6.80;;;16.20;73.90;;;;;;5012606;28;20978;-52
2022/08/09 01:02:50;;;;;;;15.67;8.40;;;;;;;;;;5015701;28;20944;-52
2022/08/09 01:05:24;;;;;;;18.30;6.67;;;16.20;73.30;;;;;;5027992;28;20475;-52
2022/08/09 01:08:00;;;;;;;43.33;9.40;;;16.20;73.80;;;;;;5035721;28;20483;-52
2022/08/09 01:10:34;;;;;;;30.43;6.50;;;16.10;74.30;;;;;;5036186;28;20541;-52
2022/08/09 01:13:07;;;;;;;15.93;7.30;;;16.00;73.90;;;;;;5032934;28;21060;-52
2022/08/09 01:15:40;;;;;;;26.03;7.53;;;16.00;74.30;;;;;;5023491;28;20536;-52
2022/08/09 01:18:13;;;;;;;18.73;6.80;;;16.00;74.60;;;;;;5039802;28;20484;-52
2022/08/09 01:20:48;;;;;;;14.57;8.83;;;16.00;74.10;;;;;;5029080;28;20498;-51
2022/08/09 01:23:33;;;;;;;9.27;7.20;;;15.90;74.00;;;;;;5005453;28;20476;-51
2022/08/09 01:26:23;;;;;;;8.90;6.70;;;15.90;74.10;;;;;;5011039;28;20480;-51
2022/08/09 01:28:55;;;;;;;14.13;8.00;;;16.00;74.10;;;;;;5024637;28;20485;-52
2022/08/09 01:31:27;;;;;;;19.63;7.20;;;16.00;74.60;;;;;;5022202;28;20831;-52
2022/08/09 01:33:56;;;;;;;13.40;8.23;;;15.90;74.60;;;;;;5020658;28;20533;-51
2022/08/09 01:36:25;;;;;;;8.63;6.77;;;15.90;73.90;;;;;;5030414;28;20477;-52
2022/08/09 01:38:53;;;;;;;13.60;6.27;;;15.90;73.60;;;;;;5018640;28;21145;-52
2022/08/09 01:41:24;;;;;;;9.03;7.53;;;15.90;74.10;;;;;;5026571;28;21028;-52
2022/08/09 01:43:55;;;;;;;18.77;7.30;;;15.80;74.60;;;;;;5034002;28;21249;-52
2022/08/09 01:46:25;;;;;;;8.83;6.40;;;15.80;74.00;;;;;;5037119;28;20947;-52
2022/08/09 01:48:53;;;;;;;12.20;6.70;;;15.80;74.30;;;;;;5034321;28;20519;-52
2022/08/09 01:51:22;;;;;;;21.43;5.87;;;15.80;74.30;;;;;;5033096;28;20488;-52
2022/08/09 01:53:51;;;;;;;14.20;6.73;;;15.80;74.60;;;;;;5034362;28;20495;-51
2022/08/09 01:56:19;;;;;;;14.30;7.23;;;15.80;74.40;;;;;;5023918;28;20467;-52
2022/08/09 01:58:48;;;;;;;24.73;8.23;;;15.90;75.00;;;;;;5023758;28;20487;-51
2022/08/09 02:01:18;;;;;;;14.20;7.60;;;15.90;74.90;;;;;;5035756;28;20593;-51
2022/08/09 02:03:46;;;;;;;15.73;8.20;;;15.80;75.20;;;;;;5036099;28;21744;-51
2022/08/09 02:06:14;;;;;;;17.13;7.40;;;15.80;74.80;;;;;;5020907;28;20485;-51
2022/08/09 02:08:44;;;;;;;14.97;10.50;;;;;;;;;;5032231;28;20479;-50
2022/08/09 02:11:12;;;;;;;37.33;7.73;;;;;;;;;;5019760;28;20488;-51
2022/08/09 02:13:40;;;;;;;15.67;8.37;;;15.60;74.50;;;;;;5022096;28;20491;-51
2022/08/09 02:16:08;;;;;;;9.63;6.17;;;;;;;;;;5031629;28;20518;-51
2022/08/09 02:18:38;;;;;;;35.60;7.90;;;15.50;76.10;;;;;;5028746;28;20484;-51
2022/08/09 02:21:09;;;;;;;14.77;6.77;;;15.60;76.20;;;;;;5032932;28;20484;-51
2022/08/09 02:23:41;;;;;;;18.20;7.80;;;15.50;75.90;;;;;;5030059;28;20546;-51
2022/08/09 02:26:11;;;;;;;11.30;6.57;;;15.50;75.80;;;;;;5024217;28;20544;-51
2022/08/09 02:28:42;;;;;;;19.40;7.50;;;15.50;75.60;;;;;;5026854;28;20484;-51
2022/08/09 02:31:14;;;;;;;6.90;5.57;;;15.40;75.70;;;;;;5010056;28;20845;-51
2022/08/09 02:33:44;;;;;;;15.47;10.53;;;15.40;75.70;;;;;;5010698;28;21008;-51
2022/08/09 02:36:15;;;;;;;16.17;7.80;;;15.40;75.70;;;;;;5019801;28;21160;-51
2022/08/09 02:38:46;;;;;;;24.87;9.07;;;15.30;75.90;;;;;;5027933;28;20472;-52
2022/08/09 02:41:16;;;;;;;12.60;7.20;;;15.10;77.00;;;;;;5030652;28;20479;-51
2022/08/09 02:43:45;;;;;;;16.40;8.17;;;15.00;76.50;;;;;;5031256;28;21051;-51
2022/08/09 02:46:14;;;;;;;12.17;6.43;;;15.00;76.60;;;;;;5031986;28;20486;-51
2022/08/09 02:48:44;;;;;;;27.93;11.63;;;14.90;77.30;;;;;;5032594;28;20475;-47
2022/08/09 02:51:14;;;;;;;21.53;6.27;;;14.90;77.50;;;;;;5032914;28;20483;-47
2022/08/09 02:53:46;;;;;;;25.97;11.00;;;14.90;77.50;;;;;;5029121;28;21213;-47
2022/08/09 02:56:14;;;;;;;17.83;7.60;;;;;;;;;;5029449;28;20573;-47
2022/08/09 02:58:42;;;;;;;17.27;10.47;;;14.80;76.60;;;;;;5030894;28;20484;-47
2022/08/09 03:01:10;;;;;;;14.07;6.20;;;16.00;78.30;;;;;;5032164;28;20843;-47
2022/08/09 03:03:38;;;;;;;20.10;8.80;;;14.80;77.00;;;;;;5022152;28;21385;-47
2022/08/09 03:06:13;;;;;;;17.03;8.63;;;14.80;77.00;;;;;;5042904;28;20860;-47
2022/08/09 03:08:41;;;;;;;16.70;10.40;;;14.90;77.80;;;;;;5028573;28;20475;-47
2022/08/09 03:11:08;;;;;;;43.97;8.87;;;14.90;76.60;;;;;;5024229;28;20973;-48
2022/08/09 03:13:37;;;;;;;16.13;9.67;;;14.90;78.00;;;;;;5010980;28;20485;-48
2022/08/09 03:16:04;;;;;;;11.40;7.03;;;14.90;76.80;;;;;;5010270;28;20485;-48
2022/08/09 03:18:31;;;;;;;51.77;9.37;;;14.90;77.50;;;;;;5008738;28;20605;-48
2022/08/09 03:21:00;;;;;;;26.43;8.07;;;14.80;77.80;;;;;;5012633;28;20484;-47
2022/08/09 03:23:28;;;;;;;14.83;8.97;;;14.80;77.40;;;;;;5004340;28;20473;-47
2022/08/09 03:25:55;;;;;;;22.40;7.93;;;14.70;77.70;;;;;;5010377;28;20473;-48
2022/08/09 03:28:24;;;;;;;11.57;7.60;;;14.60;78.20;;;;;;5024972;28;20484;-47
2022/08/09 03:30:52;;;;;;;14.20;8.43;;;14.60;78.00;;;;;;5028492;28;20495;-47
2022/08/09 03:33:19;;;;;;;30.83;7.30;;;14.60;77.90;;;;;;5029137;28;20553;-47
2022/08/09 03:35:50;;;;;;;23.27;12.07;;;14.60;77.80;;;;;;5027818;28;20553;-47
2022/08/09 03:38:17;;;;;;;37.77;9.20;;;14.50;78.30;;;;;;5029702;28;20491;-48
2022/08/09 03:40:45;;;;;;;24.60;11.83;;;14.50;77.80;;;;;;5029313;28;20854;-48
2022/08/09 03:43:12;;;;;;;12.73;7.77;;;14.50;77.40;;;;;;5029646;28;20534;-48
2022/08/09 03:45:38;;;;;;;21.37;9.00;;;14.50;77.80;;;;;;5028787;28;20483;-48
2022/08/09 03:48:05;;;;;;;12.80;8.07;;;14.30;79.00;;;;;;5030845;28;20505;-47
2022/08/09 03:50:34;;;;;;;13.57;9.00;;;14.30;78.40;;;;;;5028542;28;20941;-47
2022/08/09 03:53:04;;;;;;;14.87;6.40;;;14.30;78.00;;;;;;5030127;28;20484;-46
2022/08/09 03:55:31;;;;;;;21.83;8.00;;;14.30;78.40;;;;;;5011985;28;20961;-47
2022/08/09 03:57:59;;;;;;;10.47;7.67;;;14.30;78.10;;;;;;5016116;28;20475;-47
2022/08/09 04:00:27;;;;;;;21.40;7.77;;;14.30;78.60;;;;;;5025766;28;20893;-49
2022/08/09 04:02:54;;;;;;;18.33;10.67;;;14.20;78.90;;;;;;5000171;28;20475;-47
2022/08/09 04:05:21;;;;;;;22.03;8.43;;;14.20;78.80;;;;;;5015246;28;20525;-47
2022/08/09 04:07:48;;;;;;;48.23;13.20;;;14.20;79.20;;;;;;5023219;28;20487;-47
2022/08/09 04:10:15;;;;;;;16.43;7.20;;;14.20;78.70;;;;;;5009418;28;20484;-48
2022/08/09 04:12:44;;;;;;;21.27;11.13;;;14.20;78.70;;;;;;5014777;28;20873;-47
2022/08/09 04:15:13;;;;;;;20.63;8.23;;;14.20;78.50;;;;;;5030414;28;20480;-48
2022/08/09 04:17:41;;;;;;;20.03;8.47;;;16.20;80.60;;;;;;5030626;28;20486;-47
2022/08/09 04:20:10;;;;;;;25.33;10.73;;;14.20;78.70;;;;;;5029189;28;20483;-47
2022/08/09 04:22:38;;;;;;;34.80;10.00;;;14.20;79.20;;;;;;5029536;28;20484;-47
2022/08/09 04:25:06;;;;;;;19.67;7.97;;;14.20;79.20;;;;;;5030141;28;20528;-46
2022/08/09 04:27:34;;;;;;;29.43;8.80;;;14.20;79.90;;;;;;5026395;28;20545;-47
2022/08/09 04:30:01;;;;;;;24.30;10.37;;;14.20;80.00;;;;;;5027994;28;20558;-47
2022/08/09 04:32:29;;;;;;;31.53;10.67;;;14.30;79.90;;;;;;5028407;28;20486;-46
2022/08/09 04:34:56;;;;;;;22.07;9.00;;;14.20;80.10;;;;;;5021871;28;22106;-47
2022/08/09 04:37:23;;;;;;;31.03;9.87;;;14.20;79.80;;;;;;5027741;28;20848;-47
2022/08/09 04:39:50;;;;;;;40.47;10.63;;;14.20;79.00;;;;;;5008317;28;20488;-47
2022/08/09 04:42:17;;;;;;;15.13;8.93;;;;;;;;;;5010809;28;21166;-46
2022/08/09 04:44:43;;;;;;;21.23;12.27;;;13.90;80.00;;;;;;5009335;28;20484;-47
2022/08/09 04:47:10;;;;;;;24.33;8.70;;;14.10;80.20;;;;;;5010846;28;20496;-47
2022/08/09 04:49:38;;;;;;;14.90;9.33;;;14.10;80.30;;;;;;5010176;28;20900;-49
2022/08/09 04:52:05;;;;;;;19.90;8.60;;;14.10;79.80;;;;;;5028100;28;20491;-46
2022/08/09 04:54:32;;;;;;;12.87;8.70;;;14.00;80.00;;;;;;5014979;28;20476;-47
2022/08/09 04:56:59;;;;;;;19.77;7.63;;;13.90;80.50;;;;;;5013273;28;20480;-46
2022/08/09 04:59:26;;;;;;;13.00;8.40;;;13.90;80.40;;;;;;5012814;28;21028;-47
2022/08/09 05:01:53;;;;;;;19.27;8.63;;;;;;;;;;5008881;28;20832;-47
2022/08/09 05:04:20;;;;;;;15.63;7.60;;;;;;;;;;5027433;28;20784;-47
2022/08/09 05:06:48;;;;;;;28.93;11.60;;;14.10;80.90;;;;;;5025976;28;20487;-46
2022/08/09 05:09:15;;;;;;;22.83;8.20;;;14.10;81.10;;;;;;5020385;28;21029;-47
2022/08/09 05:11:44;;;;;;;28.67;10.27;;;14.10;80.50;;;;;;5006816;28;20480;-47
2022/08/09 05:14:10;;;;;;;32.37;12.20;;;14.20;80.40;;;;;;5014700;28;20962;-47
2022/08/09 05:16:37;;;;;;;23.00;12.43;;;14.30;80.30;;;;;;5028501;28;20549;-47
2022/08/09 05:19:04;;;;;;;18.33;9.67;;;14.40;80.40;;;;;;5030575;28;20486;-47
2022/08/09 05:21:31;;;;;;;23.27;10.13;;;14.50;80.40;;;;;;5027609;28;20568;-47
2022/08/09 05:23:59;;;;;;;14.13;8.93;;;14.50;81.30;;;;;;5027837;28;20533;-47
2022/08/09 05:26:26;;;;;;;46.10;9.27;;;14.60;81.30;;;;;;5028103;28;20482;-47
2022/08/09 05:28:53;;;;;;;15.30;8.70;;;14.60;81.60;;;;;;5029873;28;20974;-47
2022/08/09 05:31:19;;;;;;;14.30;8.33;;;14.70;82.10;;;;;;5026575;28;21367;-47
2022/08/09 05:33:46;;;;;;;25.53;10.60;;;14.80;81.40;;;;;;5025163;28;20488;-47
2022/08/09 05:36:12;;;;;;;13.20;8.60;;;14.80;81.90;;;;;;5026104;28;20487;-47
2022/08/09 05:38:39;;;;;;;18.87;11.07;;;15.00;82.30;;;;;;5026340;28;20816;-47
2022/08/09 05:41:07;;;;;;;15.30;9.40;;;15.20;82.80;;;;;;5028669;28;20598;-47
2022/08/09 05:43:35;;;;;;;16.60;10.07;;;15.30;82.90;;;;;;5025471;28;20491;-48
2022/08/09 05:46:01;;;;;;;16.93;9.13;;;15.50;83.20;;;;;;5029826;28;20480;-47
2022/08/09 05:48:29;;;;;;;25.33;10.77;;;;;;;;;;5031999;28;20937;-47
2022/08/09 05:50:55;;;;;;;15.57;8.47;;;16.00;84.00;;;;;;5022972;28;20545;-48
2022/08/09 05:53:23;;;;;;;21.70;9.03;;;16.20;84.40;;;;;;5032227;28;21040;-48
2022/08/09 05:55:49;;;;;;;23.93;12.40;;;16.40;83.00;;;;;;5029057;28;21012;-48
2022/08/09 05:58:17;;;;;;;23.77;9.50;;;16.60;82.30;;;;;;5026825;28;20517;-48
2022/08/09 06:00:44;;;;;;;21.40;10.73;;;16.80;82.20;;;;;;5031005;28;20988;-48
2022/08/09 06:03:11;;;;;;;28.70;12.17;;;17.20;81.50;;;;;;5014239;28;20476;-47
2022/08/09 06:05:38;;;;;;;19.27;10.00;;;17.30;81.00;;;;;;5025020;28;20491;-48
2022/08/09 06:08:05;;;;;;;25.03;9.90;;;17.50;80.30;;;;;;5025661;28;20569;-48
2022/08/09 06:10:37;;;;;;;17.53;8.50;;;17.80;79.50;;;;;;5015495;28;20701;-48
2022/08/09 06:13:05;;;;;;;12.67;8.00;;;18.00;78.60;;;;;;5011709;28;20483;-48
2022/08/09 06:15:34;;;;;;;24.63;8.47;;;18.30;78.80;;;;;;5022955;28;20849;-47
2022/08/09 06:18:01;;;;;;;23.70;6.27;;;18.50;77.70;;;;;;5017143;28;20511;-47
2022/08/09 06:20:27;;;;;;;9.30;7.17;;;18.70;76.30;;;;;;5023812;28;20476;-48
2022/08/09 06:22:54;;;;;;;13.23;8.60;;;18.90;75.70;;;;;;5008211;28;21178;-48
2022/08/09 06:25:21;;;;;;;21.10;6.70;;;;;;;;;;5024666;28;20485;-48
2022/08/09 06:27:48;;;;;;;23.37;10.20;;;19.40;74.20;;;;;;5015672;28;20874;-48
2022/08/09 06:30:15;;;;;;;15.47;7.67;;;19.60;73.40;;;;;;5010668;28;20501;-49
2022/08/09 06:32:43;;;;;;;31.83;10.10;;;19.80;72.50;;;;;;5011905;28;20760;-48
2022/08/09 06:35:10;;;;;;;13.23;7.47;;;20.10;71.90;;;;;;5012469;28;20738;-48
2022/08/09 06:37:37;;;;;;;20.73;8.17;;;20.30;70.90;;;;;;5010923;28;20485;-48
2022/08/09 06:40:05;;;;;;;22.13;6.50;;;20.50;70.60;;;;;;5010833;28;20828;-48
2022/08/09 06:42:32;;;;;;;46.37;11.37;;;20.80;69.60;;;;;;4995624;28;20906;-48
2022/08/09 06:44:59;;;;;;;9.50;5.40;;;21.00;69.30;;;;;;5025548;28;20540;-48
2022/08/09 06:47:26;;;;;;;19.20;5.90;;;21.20;67.60;;;;;;5015250;28;20487;-49
2022/08/09 06:49:54;;;;;;;30.43;7.47;;;21.50;67.20;;;;;;5029888;28;20567;-48
2022/08/09 06:52:21;;;;;;;13.60;6.60;;;21.70;65.60;;;;;;5026125;28;20484;-48
2022/08/09 06:54:47;;;;;;;13.03;5.40;;;21.90;64.80;;;;;;5023678;28;20513;-50
2022/08/09 06:57:15;;;;;;;11.20;5.53;;;22.30;64.80;;;;;;5020452;28;20483;-48
2022/08/09 06:59:42;;;;;;;10.67;7.67;;;22.60;64.80;;;;;;5028745;28;20586;-49
2022/08/09 07:02:09;;;;;;;18.70;6.83;;;22.80;63.50;;;;;;5014035;28;20481;-48
2022/08/09 07:04:36;;;;;;;10.10;6.50;;;23.10;63.20;;;;;;5003220;28;20495;-48
2022/08/09 07:07:04;;;;;;;5.93;4.87;;;23.40;62.20;;;;;;5016675;28;20575;-48
2022/08/09 07:09:31;;;;;;;26.20;6.57;;;23.60;60.70;;;;;;5010459;28;20496;-48
2022/08/09 07:11:57;;;;;;;10.10;5.80;;;23.70;60.50;;;;;;5009576;28;20484;-48
2022/08/09 07:14:24;;;;;;;9.07;5.40;;;23.90;61.00;;;;;;5010089;28;20485;-49
2022/08/09 07:16:51;;;;;;;21.77;6.10;;;24.10;60.00;;;;;;5000728;28;21004;-50
2022/08/09 07:19:18;;;;;;;9.30;6.63;;;24.30;59.20;;;;;;5021553;28;20473;-49
2022/08/09 07:21:45;;;;;;;18.47;9.17;;;;;;;;;;5010692;28;20765;-49
2022/08/09 07:24:13;;;;;;;17.30;4.70;;;24.50;58.60;;;;;;5012064;28;21270;-49
2022/08/09 07:26:40;;;;;;;14.80;7.47;;;24.60;58.50;;;;;;5009681;28;20481;-49
2022/08/09 07:29:07;;;;;;;13.37;5.40;;;;;;;;;;5009749;28;20882;-49
2022/08/09 07:31:34;;;;;;;19.77;6.40;;;24.90;58.80;;;;;;5007963;28;21035;-48
2022/08/09 07:34:00;;;;;;;14.10;6.30;;;25.10;57.80;;;;;;5008013;28;20480;-48
2022/08/09 07:36:29;;;;;;;18.00;5.60;;;25.20;57.60;;;;;;5004990;28;20484;-48
2022/08/09 07:38:58;;;;;;;22.03;6.27;;;25.40;57.30;;;;;;5010182;28;20982;-49
2022/08/09 07:41:26;;;;;;;12.43;5.80;;;25.50;57.60;;;;;;5005887;28;21029;-50
2022/08/09 07:43:52;;;;;;;14.30;6.70;;;25.80;57.60;;;;;;5010292;28;20966;-50
2022/08/09 07:46:19;;;;;;;17.93;5.90;;;27.90;58.60;;;;;;5029812;28;20911;-49
2022/08/09 07:48:46;;;;;;;21.27;9.80;;;26.30;56.30;;;;;;5023395;28;20471;-49
2022/08/09 07:51:13;;;;;;;8.37;6.40;;;26.60;55.80;;;;;;5032415;28;20801;-49
2022/08/09 07:53:39;;;;;;;28.10;7.07;;;26.70;55.10;;;;;;5027138;28;20487;-49
2022/08/09 07:56:06;;;;;;;9.60;5.73;;;26.80;55.60;;;;;;5027835;28;20538;-50
2022/08/09 07:58:35;;;;;;;10.83;7.03;;;27.00;54.50;;;;;;5028772;28;20476;-50
2022/08/09 08:01:01;;;;;;;16.30;5.50;;;27.20;54.90;;;;;;5030742;28;20475;-51
2022/08/09 08:03:28;;;;;;;11.20;6.03;;;27.30;53.90;;;;;;5029429;28;21131;-50
2022/08/09 08:05:55;;;;;;;9.03;6.57;;;27.40;53.40;;;;;;5027064;28;20577;-49
2022/08/09 08:08:23;;;;;;;15.80;4.50;;;27.60;54.40;;;;;;5026098;28;20476;-50
2022/08/09 08:10:49;;;;;;;11.00;7.27;;;30.60;55.00;;;;;;5027697;28;20494;-50
2022/08/09 08:13:16;;;;;;;21.70;5.73;;;27.80;52.40;;;;;;5030374;28;20482;-50
2022/08/09 08:15:44;;;;;;;21.03;7.70;;;27.80;52.00;;;;;;5026307;28;21412;-50
2022/08/09 08:18:12;;;;;;;10.20;5.70;;;27.90;52.40;;;;;;5028824;28;20681;-51
2022/08/09 08:20:38;;;;;;;9.53;6.27;;;27.70;52.00;;;;;;5004507;28;20477;-50
2022/08/09 08:23:06;;;;;;;14.37;4.97;;;28.10;52.80;;;;;;5001515;28;20535;-51
2022/08/09 08:25:33;;;;;;;18.07;5.70;;;28.20;52.00;;;;;;5018630;28;20548;-51
2022/08/09 08:28:00;;;;;;;6.97;5.10;;;28.30;51.30;;;;;;5011551;28;20964;-51
2022/08/09 08:30:26;;;;;;;13.43;4.90;;;28.50;51.50;;;;;;5011889;28;20821;-51
2022/08/09 08:32:55;;;;;;;8.73;5.13;;;28.60;51.10;;;;;;5006561;28;20485;-53
2022/08/09 08:35:22;;;;;;;8.90;4.73;;;;;;;;;;5017923;28;20479;-52
2022/08/09 08:37:50;;;;;;;8.30;5.37;;;;;;;;;;5027942;28;20483;-51
2022/08/09 08:40:18;;;;;;;11.10;4.60;;;30.10;52.00;;;;;;5010194;28;20520;-55
2022/08/09 08:42:45;;;;;;;20.57;9.10;;;29.30;50.40;;;;;;5002878;28;20496;-52
2022/08/09 08:45:13;;;;;;;4.97;4.47;;;29.40;50.20;;;;;;5011145;28;20484;-52
2022/08/09 08:47:40;;;;;;;12.50;6.37;;;29.50;50.10;;;;;;4997685;28;21593;-53
2022/08/09 08:50:09;;;;;;;22.47;4.97;;;29.60;49.60;;;;;;5025946;28;20480;-51
2022/08/09 08:52:36;;;;;;;7.90;6.60;;;29.70;49.90;;;;;;5008942;28;20888;-51
2022/08/09 08:55:02;;;;;;;8.30;4.50;;;29.80;50.60;;;;;;5013702;28;20738;-51
2022/08/09 08:57:29;;;;;;;34.33;6.50;;;29.90;49.00;;;;;;5009535;28;20459;-52
2022/08/09 08:59:56;;;;;;;8.37;5.30;;;30.00;49.50;;;;;;5003284;28;20492;-51
2022/08/09 09:02:25;;;;;;;12.43;7.53;;;30.10;49.20;;;;;;5009411;28;20480;-51
2022/08/09 09:04:53;;;;;;;21.27;8.27;;;30.30;49.30;;;;;;5002848;28;21095;-51
2022/08/09 09:07:22;;;;;;;9.63;5.30;;;30.40;48.70;;;;;;5009381;28;20923;-51
2022/08/09 09:09:51;;;;;;;10.07;7.03;;;30.40;48.20;;;;;;5002608;28;20535;-51
2022/08/09 09:12:19;;;;;;;33.20;6.70;;;30.40;48.60;;;;;;4992639;28;20527;-51
2022/08/09 09:14:47;;;;;;;8.27;7.20;;;30.60;49.30;;;;;;5008282;28;20483;-51
2022/08/09 09:17:14;;;;;;;6.20;5.40;;;30.80;48.30;;;;;;5027661;28;20581;-53
2022/08/09 09:19:41;;;;;;;15.17;6.57;;;30.90;48.40;;;;;;5007716;28;20477;-51
2022/08/09 09:22:12;;;;;;;17.23;6.33;;;31.00;48.20;;;;;;5031161;28;20681;-52
2022/08/09 09:24:42;;;;;;;12.70;6.80;;;31.10;48.40;;;;;;5016023;28;20891;-53
2022/08/09 09:27:10;;;;;;;17.93;4.63;;;31.30;47.80;;;;;;5031752;28;20499;-54
2022/08/09 09:29:39;;;;;;;11.90;5.73;;;31.30;47.80;;;;;;5032930;28;20475;-53
2022/08/09 09:32:07;;;;;;;9.17;5.40;;;31.50;48.80;;;;;;5033195;28;20487;-53
2022/08/09 09:34:34;;;;;;;6.77;4.73;;;31.00;48.20;;;;;;5030399;28;21254;-53
2022/08/09 09:37:02;;;;;;;6.80;2.77;;;31.90;47.50;;;;;;5032547;28;20589;-53
2022/08/09 09:39:30;;;;;;;11.67;4.00;;;32.10;48.00;;;;;;5021245;28;21082;-53
2022/08/09 09:41:59;;;;;;;8.60;3.67;;;32.20;47.90;;;;;;5032959;28;20533;-54
2022/08/09 09:44:31;;;;;;;16.90;3.70;;;32.30;47.70;;;;;;5029675;28;20637;-53
2022/08/09 09:47:05;;;;;;;17.37;3.17;;;32.40;47.40;;;;;;5032830;28;20474;-54
2022/08/09 09:49:32;;;;;;;7.10;3.93;;;;;;;;;;5012778;28;20477;-55
2022/08/09 09:52:04;;;;;;;5.83;3.03;;;32.70;47.30;;;;;;5010729;28;20499;-54
2022/08/09 09:54:37;;;;;;;4.27;3.40;;;32.80;46.60;;;;;;5016543;28;21185;-53
2022/08/09 09:57:17;;;;;;;4.57;4.10;;;32.80;46.40;;;;;;5033995;28;21208;-53
2022/08/09 09:59:44;;;;;;;6.93;4.73;;;32.90;46.90;;;;;;5011603;28;20820;-54
2022/08/09 10:02:11;;;;;;;2.70;2.50;;;33.00;47.00;;;;;;5011468;28;20511;-53
2022/08/09 10:04:38;;;;;;;10.83;4.87;;;;;;;;;;5007438;28;20815;-54
2022/08/09 10:07:05;;;;;;;9.83;3.73;;;;;;;;;;5029942;28;20480;-54
2022/08/09 10:09:49;;;;;;;7.63;3.53;;;32.60;46.60;;;;;;5024249;28;20465;-53
2022/08/09 10:12:26;;;;;;;13.90;3.23;;;32.90;47.10;;;;;;5002588;28;20476;-53
2022/08/09 10:15:03;;;;;;;2.77;2.57;;;33.10;46.80;;;;;;5012986;28;20550;-54
2022/08/09 10:17:33;;;;;;;13.60;3.23;;;33.20;46.10;;;;;;5013335;28;20555;-55
2022/08/09 10:20:00;;;;;;;6.03;2.60;;;33.30;46.30;;;;;;5026656;28;20465;-54
2022/08/09 10:22:32;;;;;;;6.60;2.40;;;33.60;46.40;;;;;;5026955;28;20514;-54
2022/08/09 10:24:59;;;;;;;4.63;2.67;;;33.80;46.70;;;;;;5016012;28;20912;-54
2022/08/09 10:27:27;;;;;;;7.73;2.53;;;33.90;45.20;;;;;;5028944;28;20885;-56
2022/08/09 10:29:54;;;;;;;3.47;2.77;;;33.90;44.90;;;;;;5031107;28;20538;-58
2022/08/09 10:32:22;;;;;;;3.30;3.10;;;33.90;44.70;;;;;;5030258;28;20457;-54
2022/08/09 10:34:49;;;;;;;4.17;2.97;;;33.70;43.10;;;;;;5027502;28;20480;-54
2022/08/09 10:37:17;;;;;;;5.20;2.97;;;33.00;44.10;;;;;;5015401;28;20452;-56
2022/08/09 10:39:44;;;;;;;3.00;2.80;;;33.00;45.70;;;;;;5009957;28;20456;-55
2022/08/09 10:42:12;;;;;;;11.70;3.00;;;33.10;45.80;;;;;;5008170;28;20920;-54
2022/08/09 10:44:41;;;;;;;8.23;2.97;;;33.80;44.50;;;;;;5004588;28;20463;-53
2022/08/09 10:47:26;;;;;;;5.40;2.67;;;33.00;43.30;;;;;;5012165;28;20451;-55
2022/08/09 10:50:02;;;;;;;24.23;4.13;;;33.30;45.20;;;;;;5006172;28;20558;-54
2022/08/09 10:53:04;;;;;;;2.87;2.63;;;33.50;44.70;;;;;;5011749;28;20505;-55
2022/08/09 10:55:32;;;;;;;6.73;2.57;;;33.70;44.60;;;;;;5005435;28;20499;-54
2022/08/09 10:57:59;;;;;;;9.90;2.80;;;33.80;44.70;;;;;;5012636;28;20481;-54
2022/08/09 11:00:37;;;;;;;32.70;4.23;;;33.90;44.50;;;;;;5013766;28;20577;-55
2022/08/09 11:03:18;;;;;;;3.10;2.80;;;33.90;44.60;;;;;;5030223;28;20458;-53
2022/08/09 11:06:18;;;;;;;11.97;3.00;;;33.90;43.00;;;;;;5020003;28;20645;-55
2022/08/09 11:08:47;;;;;;;8.23;3.20;;;33.80;44.40;;;;;;5024880;28;20456;-56
2022/08/09 11:11:14;;;;;;;4.60;2.40;;;34.10;45.10;;;;;;5006950;28;20638;-55
2022/08/09 11:13:41;;;;;;;6.63;2.67;;;;;;;;;;5005052;28;20488;-54
2022/08/09 11:16:27;;;;;;;8.03;2.77;;;;;;;;;;5018609;28;21301;-54
2022/08/09 11:18:55;;;;;;;6.03;2.50;;;;;;;;;;5028357;28;20458;-55
2022/08/09 11:21:41;;;;;;;5.80;3.10;;;;;;;;;;5002734;28;20476;-55
2022/08/09 11:24:09;;;;;;;4.10;2.37;;;;;;;;;;5028582;28;20472;-57
2022/08/09 11:26:39;;;;;;;8.03;3.10;;;34.10;43.20;;;;;;5037249;28;20577;-55
2022/08/09 11:29:06;;;;;;;5.27;2.57;;;34.00;43.10;;;;;;5028362;28;20578;-55
2022/08/09 11:31:44;;;;;;;4.00;2.67;;;34.00;42.50;;;;;;5027917;28;20487;-55
2022/08/09 11:34:33;;;;;;;25.70;3.70;;;34.00;42.80;;;;;;5026732;28;20455;-55
2022/08/09 11:37:02;;;;;;;2.70;2.50;;;33.80;42.90;;;;;;5031756;28;20503;-55
2022/08/09 11:39:29;;;;;;;4.40;3.10;;;33.90;43.30;;;;;;5032061;28;20896;-55
2022/08/09 11:41:56;;;;;;;2.20;2.00;;;33.90;43.10;;;;;;5030570;28;20454;-56
2022/08/09 11:44:44;;;;;;;4.33;3.10;;;33.70;42.10;;;;;;5015430;28;20903;-57
2022/08/09 11:47:11;;;;;;;7.33;2.53;;;33.60;43.10;;;;;;5029302;28;20488;-54
2022/08/09 11:49:58;;;;;;;16.63;3.70;;;33.30;43.10;;;;;;5031411;28;20454;-56
2022/08/09 11:52:26;;;;;;;8.80;3.03;;;33.30;44.00;;;;;;5025949;28;20556;-57
2022/08/09 11:55:31;;;;;;;8.13;2.97;;;33.40;43.50;;;;;;5022874;28;20680;-56
2022/08/09 11:57:58;;;;;;;3.43;2.10;;;32.90;42.50;;;;;;5024356;28;20502;-57
2022/08/09 12:00:25;;;;;;;11.03;3.03;;;33.10;43.80;;;;;;5023586;28;21120;-60
2022/08/09 12:02:52;;;;;;;2.87;2.67;;;33.50;44.40;;;;;;5014207;28;21020;-56
2022/08/09 12:05:21;;;;;;;2.83;2.30;;;33.90;44.70;;;;;;5034198;28;20458;-55
2022/08/09 12:07:47;;;;;;;29.33;3.57;;;33.90;42.50;;;;;;5025328;28;20902;-57
2022/08/09 12:10:15;;;;;;;2.73;2.53;;;33.70;43.50;;;;;;5010893;28;20481;-55
2022/08/09 12:12:46;;;;;;;3.67;3.37;;;33.90;42.50;;;;;;5007131;28;20986;-54
2022/08/09 12:15:22;;;;;;;3.70;2.90;;;34.20;43.50;;;;;;5001849;28;20887;-54
2022/08/09 12:17:49;;;;;;;8.37;2.93;;;34.20;42.90;;;;;;5008864;28;20480;-55
2022/08/09 12:20:18;;;;;;;14.93;2.77;;;34.40;43.10;;;;;;5017257;28;20477;-54
2022/08/09 12:22:47;;;;;;;7.57;3.10;;;34.30;43.00;;;;;;5034321;28;21034;-55
2022/08/09 12:25:16;;;;;;;10.40;2.60;;;34.10;42.90;;;;;;5025968;28;20489;-54
2022/08/09 12:27:44;;;;;;;18.83;3.13;;;33.70;42.80;;;;;;5031223;28;20694;-54
2022/08/09 12:30:12;;;;;;;4.40;2.80;;;33.60;42.70;;;;;;5020173;28;20551;-55
2022/08/09 12:32:39;;;;;;;3.90;2.90;;;33.60;43.00;;;;;;5008160;28;20450;-55
2022/08/09 12:35:07;;;;;;;5.07;3.30;;;33.50;43.50;;;;;;5005008;28;20485;-56
2022/08/09 12:37:36;;;;;;;10.60;3.47;;;33.30;41.90;;;;;;5009986;28;20608;-56
2022/08/09 12:40:07;;;;;;;7.50;2.43;;;33.70;43.90;;;;;;5005693;28;21043;-55
2022/08/09 12:42:34;;;;;;;7.13;2.60;;;33.80;43.60;;;;;;5002349;28;20490;-55
2022/08/09 12:45:02;;;;;;;6.23;2.40;;;34.20;43.10;;;;;;5021713;28;20542;-56
2022/08/09 12:47:29;;;;;;;34.97;4.10;;;34.30;42.10;;;;;;5025732;28;20497;-58
2022/08/09 12:52:44;;;;;;;13.23;2.77;;;34.70;42.50;;;;;;5028603;28;20525;-56
2022/08/09 12:55:24;;;;;;;6.00;2.80;;;34.90;42.20;;;;;;5022666;28;20469;-56
2022/08/09 12:57:52;;;;;;;3.07;2.87;;;35.00;42.50;;;;;;4995221;28;20973;-55